createdAt,value
2018-05-14T00:00:48.900Z,54.30
2018-05-14T00:03:17.739Z,54.40
2018-05-14T00:05:46.579Z,54.80
2018-05-14T00:08:15.450Z,54.90
2018-05-14T00:10:45.319Z,55.10
2018-05-14T00:13:14.944Z,55.30
2018-05-14T00:15:43.774Z,55.40
2018-05-14T00:18:12.619Z,55.30
2018-05-14T00:20:41.779Z,55.20
2018-05-14T00:23:10.637Z,55.20
2018-05-14T00:25:39.478Z,55.10
2018-05-14T00:28:08.349Z,55.20
2018-05-14T00:30:38.214Z,55.40
2018-05-14T00:33:07.854Z,55.40
2018-05-14T00:35:36.730Z,55.70
2018-05-14T00:38:06.362Z,55.40
2018-05-14T00:40:35.214Z,55.70
2018-05-14T00:43:04.547Z,55.40
2018-05-14T00:45:33.524Z,55.40
2018-05-14T00:48:03.168Z,55.40
2018-05-14T00:50:32.057Z,55.60
2018-05-14T00:53:00.927Z,55.40
2018-05-14T00:55:30.052Z,55.60
2018-05-14T00:57:58.959Z,55.70
2018-05-14T01:00:27.823Z,55.70
2018-05-14T01:02:57.434Z,55.70
2018-05-14T01:05:27.102Z,55.80
2018-05-14T01:07:56.349Z,55.90
2018-05-14T01:10:25.569Z,55.90
2018-05-14T01:12:54.864Z,56.10
2018-05-14T01:15:24.468Z,56.50
2018-05-14T01:17:53.574Z,56.50
2018-05-14T01:20:22.446Z,56.40
2018-05-14T01:22:52.112Z,56.50
2018-05-14T01:25:20.965Z,56.40
2018-05-14T01:27:50.734Z,56.40
2018-05-14T01:30:19.839Z,56.40
2018-05-14T01:32:49.035Z,56.30
2018-05-14T01:35:17.897Z,56.40
2018-05-14T01:37:46.769Z,56.40
2018-05-14T01:40:16.386Z,57.20
2018-05-14T01:42:46.042Z,56.80
2018-05-14T01:45:14.894Z,57.10
2018-05-14T01:47:43.974Z,56.60
2018-05-14T01:50:12.894Z,57.00
2018-05-14T01:52:42.557Z,57.30
2018-05-14T01:55:11.526Z,57.30
2018-05-14T01:57:40.601Z,57.20
2018-05-14T02:00:10.627Z,57.40
2018-05-14T02:02:39.505Z,57.50
2018-05-14T02:05:09.136Z,57.70
2018-05-14T02:07:38.018Z,57.90
2018-05-14T02:10:07.250Z,58.90
2018-05-14T02:12:36.145Z,59.10
2018-05-14T02:15:05.184Z,59.30
2018-05-14T02:17:34.175Z,59.20
2018-05-14T02:20:03.211Z,59.10
2018-05-14T02:22:32.924Z,59.10
2018-05-14T02:25:01.936Z,59.30
2018-05-14T02:27:30.940Z,59.20
2018-05-14T02:30:01.567Z,59.30
2018-05-14T02:32:30.555Z,59.30
2018-05-14T02:35:00.311Z,59.60
2018-05-14T02:37:29.695Z,59.70
2018-05-14T02:39:59.455Z,59.60
2018-05-14T02:42:28.897Z,59.50
2018-05-14T02:44:57.880Z,59.80
2018-05-14T02:47:27.253Z,60.20
2018-05-14T02:49:56.233Z,60.20
2018-05-14T02:52:25.062Z,60.30
2018-05-14T02:54:53.983Z,60.30
2018-05-14T02:57:23.692Z,60.30
2018-05-14T02:59:53.317Z,61.30
2018-05-14T03:02:22.925Z,60.50
2018-05-14T03:04:52.673Z,60.40
2018-05-14T03:07:21.942Z,60.60
2018-05-14T03:09:51.555Z,60.60
2018-05-14T03:12:21.166Z,60.50
2018-05-14T03:14:50.039Z,60.80
2018-05-14T03:17:19.726Z,61.00
2018-05-14T03:19:49.418Z,60.40
2018-05-14T03:22:18.306Z,60.50
2018-05-14T03:24:47.177Z,60.60
2018-05-14T03:27:16.872Z,61.20
2018-05-14T03:29:46.135Z,61.30
2018-05-14T03:32:15.015Z,61.50
2018-05-14T03:34:43.908Z,61.60
2018-05-14T03:37:12.784Z,61.40
2018-05-14T03:39:41.631Z,61.60
2018-05-14T03:42:10.660Z,61.50
2018-05-14T03:44:39.895Z,62.10
2018-05-14T03:47:08.732Z,62.40
2018-05-14T03:49:37.590Z,62.40
2018-05-14T03:52:06.429Z,62.30
2018-05-14T03:54:35.552Z,62.40
2018-05-14T03:57:05.259Z,62.50
2018-05-14T03:59:46.491Z,61.60
2018-05-14T04:02:27.375Z,61.70
2018-05-14T04:05:08.194Z,61.50
2018-05-14T04:07:37.111Z,61.50
2018-05-14T04:10:05.994Z,61.50
2018-05-14T04:12:34.843Z,61.60
2018-05-14T04:15:03.842Z,61.70
2018-05-14T04:17:32.691Z,61.60
2018-05-14T04:20:01.552Z,61.50
2018-05-14T04:22:30.806Z,61.50
2018-05-14T04:25:00.463Z,61.60
2018-05-14T04:27:30.023Z,61.80
2018-05-14T04:29:59.282Z,61.60
2018-05-14T04:32:28.113Z,61.70
2018-05-14T04:34:56.964Z,61.70
2018-05-14T04:37:26.609Z,61.60
2018-05-14T04:39:55.468Z,61.70
2018-05-14T04:42:24.472Z,61.40
2018-05-14T04:44:53.458Z,61.30
2018-05-14T04:47:23.117Z,61.40
2018-05-14T04:49:51.991Z,61.50
2018-05-14T04:52:20.977Z,61.20
2018-05-14T04:54:50.681Z,61.00
2018-05-14T04:57:20.326Z,60.90
2018-05-14T04:59:49.204Z,61.00
2018-05-14T05:02:18.068Z,60.90
2018-05-14T05:04:47.247Z,60.70
2018-05-14T05:07:16.120Z,60.70
2018-05-14T05:09:44.979Z,60.60
2018-05-14T05:12:14.642Z,60.50
2018-05-14T05:14:43.554Z,60.50
2018-05-14T05:17:14.043Z,60.40
2018-05-14T05:19:45.210Z,60.20
2018-05-14T05:22:14.064Z,60.20
2018-05-14T05:24:43.677Z,59.70
2018-05-14T05:27:12.653Z,59.60
2018-05-14T05:29:42.254Z,59.60
2018-05-14T05:32:11.125Z,59.60
2018-05-14T05:34:39.990Z,59.60
2018-05-14T05:37:08.956Z,59.30
2018-05-14T05:39:38.577Z,59.20
2018-05-14T05:42:07.419Z,59.10
2018-05-14T05:44:36.246Z,58.90
2018-05-14T05:47:06.391Z,58.70
2018-05-14T05:49:37.354Z,59.20
2018-05-14T05:52:06.533Z,58.90
2018-05-14T05:54:36.298Z,58.90
2018-05-14T05:57:06.170Z,58.50
2018-05-14T05:59:35.205Z,58.30
2018-05-14T06:02:04.192Z,58.00
2018-05-14T06:04:33.669Z,58.20
2018-05-14T06:07:05.068Z,58.10
2018-05-14T06:09:35.224Z,57.70
2018-05-14T06:12:05.156Z,57.50
2018-05-14T06:14:35.763Z,56.90
2018-05-14T06:17:06.551Z,56.40
2018-05-14T06:19:36.836Z,56.30
2018-05-14T06:22:08.041Z,55.60
2018-05-14T06:24:37.852Z,55.40
2018-05-14T06:27:07.058Z,55.10
2018-05-14T06:29:36.332Z,54.50
2018-05-14T06:32:06.439Z,54.10
2018-05-14T06:34:36.383Z,53.80
2018-05-14T06:37:05.654Z,53.70
2018-05-14T06:39:34.996Z,53.20
2018-05-14T06:42:04.158Z,52.70
2018-05-14T06:44:33.064Z,52.30
2018-05-14T06:47:02.798Z,51.90
2018-05-14T06:49:31.735Z,51.90
2018-05-14T06:52:01.393Z,52.10
2018-05-14T06:54:30.822Z,51.80
2018-05-14T06:57:00.193Z,51.60
2018-05-14T06:59:30.238Z,51.00
2018-05-14T07:01:59.206Z,50.90
2018-05-14T07:04:28.827Z,50.80
2018-05-14T07:06:58.569Z,49.80
2018-05-14T07:09:27.551Z,49.70
2018-05-14T07:11:57.285Z,49.50
2018-05-14T07:14:26.238Z,49.40
2018-05-14T07:16:55.558Z,49.40
2018-05-14T07:19:24.980Z,49.40
2018-05-14T07:21:54.738Z,48.80
2018-05-14T07:24:24.486Z,48.70
2018-05-14T07:26:54.166Z,48.50
2018-05-14T07:29:23.088Z,48.40
2018-05-14T07:31:52.031Z,48.10
2018-05-14T07:34:21.206Z,48.00
2018-05-14T07:36:51.016Z,47.80
2018-05-14T07:39:20.089Z,47.80
2018-05-14T07:41:48.960Z,47.50
2018-05-14T07:44:17.871Z,47.60
2018-05-14T07:46:46.840Z,47.50
2018-05-14T07:49:15.741Z,47.30
2018-05-14T07:51:44.688Z,47.10
2018-05-14T07:54:14.046Z,46.60
2018-05-14T07:56:42.960Z,46.30
2018-05-14T07:59:11.923Z,46.20
2018-05-14T08:01:40.931Z,45.60
2018-05-14T08:04:09.856Z,45.90
2018-05-14T08:06:38.786Z,44.50
2018-05-14T08:09:08.555Z,45.10
2018-05-14T08:11:37.616Z,45.00
2018-05-14T08:14:07.287Z,45.00
2018-05-14T08:16:36.575Z,44.90
2018-05-14T08:19:05.594Z,45.80
2018-05-14T08:21:34.501Z,45.30
2018-05-14T08:24:03.960Z,45.00
2018-05-14T08:26:32.909Z,44.40
2018-05-14T08:29:02.588Z,43.90
2018-05-14T08:31:31.914Z,43.90
2018-05-14T08:34:00.893Z,43.80
2018-05-14T08:36:29.945Z,43.40
2018-05-14T08:38:59.095Z,43.10
2018-05-14T08:41:28.102Z,42.90
2018-05-14T08:43:57.042Z,42.40
2018-05-14T08:46:26.344Z,42.20
2018-05-14T08:48:55.336Z,42.10
2018-05-14T08:51:24.243Z,41.30
2018-05-14T08:53:53.070Z,40.50
2018-05-14T08:56:22.014Z,39.80
2018-05-14T08:58:51.606Z,39.50
2018-05-14T09:01:21.578Z,39.60
2018-05-14T09:03:50.415Z,39.50
2018-05-14T09:06:19.259Z,39.30
2018-05-14T09:08:48.137Z,38.70
2018-05-14T09:11:17.026Z,38.30
2018-05-14T09:13:46.653Z,38.50
2018-05-14T09:16:15.531Z,38.50
2018-05-14T09:18:44.745Z,38.70
2018-05-14T09:21:13.602Z,38.80
2018-05-14T09:23:42.958Z,38.60
2018-05-14T09:26:11.831Z,38.00
2018-05-14T09:28:40.982Z,38.10
2018-05-14T09:31:09.851Z,37.70
2018-05-14T09:33:38.726Z,37.50
2018-05-14T09:36:07.562Z,37.20
2018-05-14T09:38:36.462Z,37.80
2018-05-14T09:41:05.755Z,36.60
2018-05-14T09:43:34.678Z,35.50
2018-05-14T09:46:03.565Z,35.20
2018-05-14T09:48:32.413Z,35.10
2018-05-14T09:51:01.494Z,35.00
2018-05-14T09:53:31.140Z,34.60
2018-05-14T09:56:00.073Z,34.50
2018-05-14T09:58:28.919Z,34.60
2018-05-14T10:00:57.849Z,34.90
2018-05-14T10:03:26.717Z,34.20
2018-05-14T10:05:56.142Z,33.80
2018-05-14T10:08:25.097Z,33.70
2018-05-14T10:10:54.194Z,33.50
2018-05-14T10:13:23.822Z,33.30
2018-05-14T10:15:52.694Z,33.10
2018-05-14T10:18:22.318Z,33.20
2018-05-14T10:20:51.187Z,33.20
2018-05-14T10:23:20.871Z,32.90
2018-05-14T10:25:49.967Z,32.80
2018-05-14T10:28:18.848Z,33.20
2018-05-14T10:30:47.796Z,33.60
2018-05-14T10:33:17.432Z,32.70
2018-05-14T10:35:46.280Z,32.70
2018-05-14T10:38:15.159Z,31.70
2018-05-14T10:40:44.453Z,32.40
2018-05-14T10:43:14.130Z,30.90
2018-05-14T10:45:43.870Z,30.40
2018-05-14T10:48:12.714Z,30.40
2018-05-14T10:50:42.342Z,31.30
2018-05-14T10:53:11.974Z,30.50
2018-05-14T10:55:41.102Z,30.60
2018-05-14T10:58:09.986Z,30.60
2018-05-14T11:00:38.881Z,30.60
2018-05-14T11:03:07.739Z,30.80
2018-05-14T11:05:37.028Z,30.80
2018-05-14T11:08:06.722Z,31.10
2018-05-14T11:10:35.726Z,31.10
2018-05-14T11:13:04.601Z,30.00
2018-05-14T11:15:34.501Z,29.10
2018-05-14T11:18:03.462Z,29.00
2018-05-14T11:20:32.393Z,29.20
2018-05-14T11:23:01.273Z,28.50
2018-05-14T11:25:30.179Z,28.70
2018-05-14T11:27:59.059Z,28.60
2018-05-14T11:30:28.031Z,28.70
2018-05-14T11:32:57.311Z,28.50
2018-05-14T11:35:26.874Z,28.70
2018-05-14T11:37:56.214Z,28.20
2018-05-14T11:40:25.835Z,28.30
2018-05-14T11:42:55.121Z,28.10
2018-05-14T11:45:24.396Z,27.90
2018-05-14T11:47:53.581Z,28.60
2018-05-14T11:50:22.879Z,28.50
2018-05-14T11:52:52.192Z,28.00
2018-05-14T11:55:21.356Z,27.70
2018-05-14T11:57:50.475Z,27.20
2018-05-14T12:00:20.150Z,27.40
2018-05-14T12:02:49.044Z,27.30
2018-05-14T12:05:17.934Z,27.40
2018-05-14T12:07:47.654Z,27.00
2018-05-14T12:10:16.493Z,26.90
2018-05-14T12:12:46.138Z,27.50
2018-05-14T12:15:15.035Z,27.50
2018-05-14T12:17:43.902Z,27.00
2018-05-14T12:20:12.742Z,26.80
2018-05-14T12:22:42.502Z,27.80
2018-05-14T12:25:12.100Z,27.70
2018-05-14T12:27:40.930Z,27.60
2018-05-14T12:30:09.778Z,27.20
2018-05-14T12:32:38.645Z,26.90
2018-05-14T12:35:07.518Z,26.70
2018-05-14T12:37:37.244Z,26.60
2018-05-14T12:40:06.142Z,26.50
2018-05-14T12:42:35.004Z,26.10
2018-05-14T12:45:03.962Z,25.50
2018-05-14T12:47:32.794Z,25.30
2018-05-14T12:50:02.414Z,25.20
2018-05-14T12:52:31.282Z,25.10
2018-05-14T12:55:00.394Z,25.40
2018-05-14T12:57:29.995Z,26.10
2018-05-14T12:59:58.937Z,26.10
2018-05-14T13:02:27.830Z,26.50
2018-05-14T13:04:56.679Z,24.90
2018-05-14T13:07:25.589Z,24.90
2018-05-14T13:09:55.233Z,24.20
2018-05-14T13:12:24.146Z,24.10
2018-05-14T13:14:53.031Z,24.20
2018-05-14T13:17:21.862Z,24.00
2018-05-14T13:19:51.131Z,24.10
2018-05-14T13:22:20.321Z,23.70
2018-05-14T13:24:49.177Z,24.10
2018-05-14T13:27:18.787Z,24.90
2018-05-14T13:29:48.767Z,24.80
2018-05-14T13:32:17.638Z,25.00
2018-05-14T13:34:46.519Z,24.30
2018-05-14T13:37:15.378Z,24.00
2018-05-14T13:39:45.375Z,23.60
2018-05-14T13:42:14.489Z,23.60
2018-05-14T13:44:43.350Z,24.20
2018-05-14T13:47:12.205Z,24.20
2018-05-14T13:49:41.828Z,24.00
2018-05-14T13:52:10.921Z,23.90
2018-05-14T13:54:40.320Z,24.00
2018-05-14T13:57:10.199Z,23.80
2018-05-14T13:59:39.177Z,23.40
2018-05-14T14:02:08.068Z,22.90
2018-05-14T14:04:36.902Z,20.20
2018-05-14T14:07:05.821Z,21.50
2018-05-14T14:09:35.477Z,22.30
2018-05-14T14:12:04.395Z,22.20
2018-05-14T14:14:33.278Z,22.30
2018-05-14T14:17:02.224Z,22.60
2018-05-14T14:19:31.150Z,22.50
2018-05-14T14:21:59.987Z,22.90
2018-05-14T14:24:28.919Z,22.90
2018-05-14T14:26:57.812Z,23.00
2018-05-14T14:29:27.318Z,22.80
2018-05-14T14:31:56.978Z,23.40
2018-05-14T14:34:25.960Z,23.30
2018-05-14T14:36:55.049Z,23.30
2018-05-14T14:39:23.941Z,23.30
2018-05-14T14:41:52.914Z,23.20
2018-05-14T14:44:21.886Z,23.60
2018-05-14T14:46:50.807Z,23.50
2018-05-14T14:49:19.713Z,23.70
2018-05-14T14:51:48.618Z,23.90
2018-05-14T14:54:17.803Z,23.60
2018-05-14T14:56:47.415Z,23.70
2018-05-14T14:59:17.286Z,23.50
2018-05-14T15:01:46.147Z,23.50
2018-05-14T15:04:15.014Z,23.90
2018-05-14T15:06:44.626Z,24.20
2018-05-14T15:09:14.700Z,23.60
2018-05-14T15:11:44.162Z,23.50
2018-05-14T15:14:13.154Z,23.60
2018-05-14T15:16:42.798Z,23.80
2018-05-14T15:19:11.667Z,23.70
2018-05-14T15:21:41.400Z,24.00
2018-05-14T15:24:10.628Z,23.90
2018-05-14T15:26:39.647Z,23.80
2018-05-14T15:29:08.697Z,24.00
2018-05-14T15:31:37.854Z,23.60
2018-05-14T15:34:06.750Z,23.40
2018-05-14T15:36:36.413Z,23.40
2018-05-14T15:39:06.147Z,23.30
2018-05-14T15:41:35.917Z,23.30
2018-05-14T15:44:04.778Z,23.20
2018-05-14T15:46:33.989Z,23.30
2018-05-14T15:49:02.921Z,23.20
2018-05-14T15:51:31.781Z,23.80
2018-05-14T15:54:00.718Z,23.80
2018-05-14T15:56:29.602Z,23.70
2018-05-14T15:58:58.479Z,23.70
2018-05-14T16:01:28.112Z,23.70
2018-05-14T16:03:57.043Z,23.70
2018-05-14T16:06:26.167Z,23.60
2018-05-14T16:08:55.100Z,24.10
2018-05-14T16:11:24.014Z,24.40
2018-05-14T16:13:52.999Z,24.40
2018-05-14T16:16:21.888Z,24.30
2018-05-14T16:18:50.828Z,23.90
2018-05-14T16:21:19.692Z,23.60
2018-05-14T16:23:48.900Z,23.50
2018-05-14T16:26:17.770Z,23.50
2018-05-14T16:28:46.931Z,23.50
2018-05-14T16:31:15.790Z,23.40
2018-05-14T16:33:44.858Z,23.30
2018-05-14T16:36:13.731Z,23.30
2018-05-14T16:38:43.342Z,23.20
2018-05-14T16:41:12.278Z,23.20
2018-05-14T16:43:41.943Z,23.90
2018-05-14T16:46:11.250Z,23.90
2018-05-14T16:48:40.527Z,24.10
2018-05-14T16:51:09.460Z,23.90
2018-05-14T16:53:38.370Z,23.90
2018-05-14T16:56:07.312Z,23.80
2018-05-14T16:58:36.174Z,24.10
2018-05-14T17:01:05.864Z,24.30
2018-05-14T17:03:34.769Z,24.30
2018-05-14T17:06:03.636Z,24.50
2018-05-14T17:08:32.475Z,24.70
2018-05-14T17:11:01.788Z,24.50
2018-05-14T17:13:31.738Z,24.70
2018-05-14T17:16:00.691Z,24.70
2018-05-14T17:18:29.964Z,24.40
2018-05-14T17:20:58.946Z,24.60
2018-05-14T17:23:27.889Z,24.70
2018-05-14T17:25:57.534Z,24.90
2018-05-14T17:28:27.261Z,24.90
2018-05-14T17:30:56.297Z,25.10
2018-05-14T17:33:25.413Z,25.30
2018-05-14T17:35:55.060Z,25.50
2018-05-14T17:38:23.989Z,25.50
2018-05-14T17:40:52.906Z,25.50
2018-05-14T17:43:21.794Z,25.60
2018-05-14T17:45:50.814Z,25.60
2018-05-14T17:48:19.790Z,25.80
2018-05-14T17:50:48.777Z,26.00
2018-05-14T17:53:18.021Z,26.00
2018-05-14T17:55:47.781Z,26.20
2018-05-14T17:58:16.979Z,26.20
2018-05-14T18:00:45.945Z,26.10
2018-05-14T18:03:14.955Z,26.10
2018-05-14T18:05:43.993Z,26.00
2018-05-14T18:08:12.853Z,26.40
2018-05-14T18:10:41.756Z,26.70
2018-05-14T18:13:10.866Z,26.70
2018-05-14T18:15:39.747Z,26.70
2018-05-14T18:18:08.644Z,26.60
2018-05-14T18:20:38.396Z,26.60
2018-05-14T18:23:07.929Z,26.50
2018-05-14T18:25:43.237Z,26.70
2018-05-14T18:28:15.000Z,26.90
2018-05-14T18:30:47.584Z,27.20
2018-05-14T18:33:22.506Z,27.10
2018-05-14T18:35:51.650Z,27.30
2018-05-14T18:38:20.579Z,27.40
2018-05-14T18:40:49.524Z,27.50
2018-05-14T18:43:18.898Z,27.60
2018-05-14T18:45:47.795Z,27.80
2018-05-14T18:48:17.081Z,28.00
2018-05-14T18:50:45.973Z,28.20
2018-05-14T18:53:16.328Z,28.10
2018-05-14T18:55:45.233Z,28.10
2018-05-14T18:58:14.964Z,28.40
2018-05-14T19:02:39.066Z,28.80
2018-05-14T19:05:08.700Z,28.80
2018-05-14T19:07:37.606Z,28.80
2018-05-14T19:10:12.071Z,29.10
2018-05-14T19:12:41.710Z,29.90
2018-05-14T19:15:17.070Z,29.70
2018-05-14T19:17:51.518Z,29.70
2018-05-14T19:20:20.523Z,29.50
2018-05-14T19:22:55.026Z,30.20
2018-05-14T19:25:23.938Z,29.90
2018-05-14T19:27:58.406Z,31.00
2018-05-14T19:30:27.710Z,30.60
2018-05-14T19:32:57.357Z,30.90
2018-05-14T19:35:41.162Z,30.80
2018-05-14T19:38:10.770Z,31.30
2018-05-14T19:40:46.069Z,31.70
2018-05-14T19:43:16.007Z,31.90
2018-05-14T19:45:44.968Z,32.00
2018-05-14T19:48:13.877Z,32.00
2018-05-14T19:50:43.532Z,32.20
2018-05-14T19:53:13.324Z,32.20
2018-05-14T19:55:42.270Z,32.20
2018-05-14T19:58:11.149Z,32.40
2018-05-14T20:00:40.060Z,32.70
2018-05-14T20:03:08.922Z,32.80
2018-05-14T20:05:37.752Z,33.00
2018-05-14T20:08:06.657Z,33.40
2018-05-14T20:10:35.768Z,34.70
2018-05-14T20:13:04.882Z,35.70
2018-05-14T20:15:33.785Z,34.30
2018-05-14T20:18:02.755Z,34.20
2018-05-14T20:20:31.678Z,34.20
2018-05-14T20:23:00.530Z,34.10
2018-05-14T20:25:29.592Z,34.20
2018-05-14T20:27:58.564Z,34.60
2018-05-14T20:30:28.254Z,34.70
2018-05-14T20:32:57.123Z,34.70
2018-05-14T20:35:26.026Z,34.70
2018-05-14T20:37:56.006Z,34.60
2018-05-14T20:40:24.872Z,34.60
2018-05-14T20:42:53.741Z,34.60
2018-05-14T20:45:22.583Z,34.70
2018-05-14T20:47:51.423Z,34.80
2018-05-14T20:50:20.270Z,35.30
2018-05-14T20:52:49.138Z,35.10
2018-05-14T20:55:18.794Z,35.10
2018-05-14T20:57:48.449Z,36.10
2018-05-14T21:00:17.263Z,35.30
2018-05-14T21:02:46.867Z,35.50
2018-05-14T21:05:15.715Z,35.50
2018-05-14T21:07:45.406Z,36.20
2018-05-14T21:10:15.446Z,36.70
2018-05-14T21:12:44.522Z,36.80
2018-05-14T21:15:13.354Z,37.10
2018-05-14T21:17:42.234Z,37.60
2018-05-14T21:20:11.542Z,37.70
2018-05-14T21:22:41.125Z,38.70
2018-05-14T21:25:09.982Z,39.00
2018-05-14T21:27:38.828Z,39.40
2018-05-14T21:30:07.648Z,40.20
2018-05-14T21:32:36.579Z,40.80
2018-05-14T21:35:05.496Z,41.20
2018-05-14T21:37:35.538Z,41.80
2018-05-14T21:40:05.242Z,41.80
2018-05-14T21:42:34.867Z,41.70
2018-05-14T21:45:04.155Z,41.60
2018-05-14T21:47:32.991Z,41.60
2018-05-14T21:50:01.846Z,41.90
2018-05-14T21:52:30.678Z,41.90
2018-05-14T21:54:59.524Z,42.20
2018-05-14T21:57:28.337Z,42.40
2018-05-14T21:59:58.451Z,41.90
2018-05-14T22:02:27.387Z,42.00
2018-05-14T22:04:56.216Z,41.90
2018-05-14T22:07:25.320Z,42.00
2018-05-14T22:09:54.172Z,42.10
2018-05-14T22:12:23.006Z,42.10
2018-05-14T22:14:51.818Z,41.80
2018-05-14T22:17:20.735Z,41.80
2018-05-14T22:19:49.870Z,42.00
2018-05-14T22:22:18.731Z,41.90
2018-05-14T22:24:48.361Z,42.40
2018-05-14T22:27:17.223Z,42.40
2018-05-14T22:29:46.046Z,42.50
2018-05-14T22:32:14.900Z,42.80
2018-05-14T22:34:44.222Z,42.90
2018-05-14T22:37:13.815Z,43.50
2018-05-14T22:39:43.067Z,43.50
2018-05-14T22:42:11.906Z,43.60
2018-05-14T22:44:40.726Z,43.80
2018-05-14T22:47:09.978Z,44.00
2018-05-14T22:49:38.786Z,44.20
2018-05-14T22:52:07.715Z,44.30
2018-05-14T22:54:38.198Z,44.40
2018-05-14T22:57:08.050Z,44.70
2018-05-14T22:59:36.867Z,44.80
2018-05-14T23:02:06.483Z,44.80
2018-05-14T23:04:35.319Z,44.90
2018-05-14T23:07:04.162Z,45.20
2018-05-14T23:09:33.819Z,45.90
2018-05-14T23:12:02.684Z,45.90
2018-05-14T23:14:31.503Z,45.90
2018-05-14T23:17:00.374Z,46.20
2018-05-14T23:19:29.183Z,46.50
2018-05-14T23:21:57.999Z,46.70
2018-05-14T23:24:26.853Z,47.00
2018-05-14T23:26:55.963Z,47.90
2018-05-14T23:29:24.786Z,47.30
2018-05-14T23:31:54.039Z,47.80
2018-05-14T23:34:23.732Z,48.90
2018-05-14T23:36:53.338Z,48.90
2018-05-14T23:39:22.176Z,48.90
2018-05-14T23:41:51.074Z,48.90
2018-05-14T23:44:20.954Z,50.10
2018-05-14T23:46:52.618Z,50.60
2018-05-14T23:49:22.259Z,51.30
2018-05-14T23:51:51.170Z,51.50
2018-05-14T23:54:22.441Z,51.70
2018-05-14T23:56:52.039Z,51.80
2018-05-14T23:59:22.106Z,52.10
